# Land Stadt Wetter Temperatur Luftdruck Luftfeuchtigkeit Sichtweite Windgeschwindigkeit Windrichtung Ortszeit
1 is Reykjavik -273 0 0 0 0 0 02.08.2018 14:22
2 af Kabul Clear 25 1022 7 10000 11 0 02.08.2018 14:21
3 au Alice Springs Clouds 32 1012 11 10000 11 150 02.08.2018 14:21
4 tr Ankara Clear 25 1024 15 10000 2 170 02.08.2018 14:23
5 tr Alanya Haze 34 1019 16 6000 5 130 02.08.2018 14:22
6 iq Bagdad Clear 37 1015 17 10000 17 260 02.08.2018 14:22
7 us Las Vegas Clear 13 1011 19 16093 9 220 02.08.2018 14:21
8 sa Riad Clouds 35 1017 20 10000 11 110 02.08.2018 14:21
9 us Denver Clear 4 1015 24 16093 9 245 02.08.2018 14:21
10 ar Esquel Clear 7 1029 24 10000 21 60 02.08.2018 14:22
11 us Death Valley Clouds 6 1011 25 0 2 92 02.08.2018 14:22
12 gr Athen Clear 26 1019 30 10000 11 320 02.08.2018 14:22
13 ua Kiew Clear 24 1021 31 10000 14 210 02.08.2018 14:21
14 cn Lhasa Clouds 9 1015 33 0 6 177 02.08.2018 14:22
15 ae Dubai Clear 35 1013 34 10000 22 340 02.08.2018 14:21
16 in Nagpur Haze 30 1013 37 5000 5 40 02.08.2018 14:21
17 mn Uliastai Clear -4 1029 38 0 3 189 02.08.2018 14:23
18 eg Kairo Clouds 32 1014 38 10000 17 10 02.08.2018 14:22
19 et Addis Abeba Clouds 22 1026 40 10000 33 100 02.08.2018 14:23
20 qa Doha Haze 36 1012 41 10000 15 60 02.08.2018 14:23
21 mn Ulaanbaatar Clear -3 1032 42 10000 14 170 02.08.2018 14:23
22 de Stuttgart Clear 23 1015 44 10000 5 360 02.08.2018 14:22
23 au Darwin Clear 28 1011 45 10000 9 30 02.08.2018 14:22
24 es Palma de Mallorca Clear 29 1014 45 10000 8 120 02.08.2018 14:22
25 bg Sofia Clear 23 1023 46 10000 5 0 02.08.2018 14:21
26 de München Clear 21 1016 46 10000 15 70 02.08.2018 14:21
27 mg Antananarivo Clouds 26 1018 47 10000 35 220 02.08.2018 14:21
28 us Tucson Clear 16 1014 48 16093 13 100 02.08.2018 14:21
29 de Nürnberg Haze 22 1016 53 10000 4 0 02.08.2018 14:21
30 de Frankfurt Clear 22 1014 56 10000 13 180 02.08.2018 14:22
31 de Kassel Clear 22 1014 56 10000 17 130 02.08.2018 14:21
32 bo Potisi Clouds 6 1018 56 0 6 21 02.08.2018 14:22
33 za Kapstadt Clouds 22 1016 56 10000 26 310 02.08.2018 14:22
34 tr Istanbul Clear 23 1021 57 10000 11 360 02.08.2018 14:23
35 id Jakarta Clouds 29 1008 58 7000 21 30 02.08.2018 14:22
36 au Perth Clouds 15 1020 58 10000 24 220 02.08.2018 14:21
37 th Bangkok Clouds 31 1009 59 10000 9 130 02.08.2018 14:21
38 in Mumbai Smoke 33 1009 59 2500 17 310 02.08.2018 14:22
39 ke Nairobi Clouds 23 1020 60 10000 28 90 02.08.2018 14:22
40 de Dresden Clear 23 1016 60 10000 15 150 02.08.2018 14:22
41 bg Warna Clear 22 1022 60 10000 13 110 02.08.2018 14:21
42 at Wien Clear 20 1020 60 10000 15 130 02.08.2018 14:22
43 fr Paris Clear 22 1008 60 10000 21 160 02.08.2018 14:22
44 ma Marrakesch Clouds 22 1022 60 10000 8 190 02.08.2018 14:23
45 it Rom Clouds 23 1022 60 10000 8 290 02.08.2018 14:23
46 de Freiburg Clear 23 1014 60 10000 9 230 02.08.2018 14:22
47 ar Buenos Aires Clear 9 1030 61 10000 21 160 02.08.2018 14:22
48 de Magdeburg Clouds 21 1015 61 0 2 346 02.08.2018 14:22
49 ch Bern Clear 19 1017 63 10000 4 0 02.08.2018 14:23
50 ch Andermatt Clear 19 1017 63 0 4 0 02.08.2018 14:23
51 de Trier Clear 20 1013 64 10000 21 170 02.08.2018 14:21
52 us Honolulu Clouds 26 1015 65 16093 11 60 02.08.2018 14:22
53 es Las Palmas de Gran Canaria Clouds 24 1021 65 10000 33 10 02.08.2018 14:21
54 ph Manila Clouds 29 1011 66 10000 11 110 02.08.2018 14:21
55 uy Montevideo Clouds 11 1029 66 10000 26 150 02.08.2018 14:22
56 nz Wellington Clouds 12 1013 66 10000 13 130 02.08.2018 14:23
57 kr Seoul Clear 11 1028 66 10000 2 160 02.08.2018 14:21
58 cd Kisangani Clouds 31 1011 66 10000 15 160 02.08.2018 14:23
59 de Hiddensee Clouds 18 1019 67 0 6 292 02.08.2018 14:21
60 de Bremen Clouds 18 1014 67 10000 5 0 02.08.2018 14:22
61 us Chicago Clear 2 1017 67 16093 5 280 02.08.2018 14:23
62 ad Andorra la Vella Clouds 19 1017 67 10000 2 0 02.08.2018 14:22
63 es Sevilla Clouds 21 1017 68 10000 9 270 02.08.2018 14:22
64 de Köln Clear 21 1012 68 10000 13 120 02.08.2018 14:21
65 jp Nagasaki Clouds 19 1021 68 10000 31 360 02.08.2018 14:21
66 de Braunschweig Clear 20 1015 68 10000 8 320 02.08.2018 14:21
67 de Hannover Clear 19 1015 68 10000 4 0 02.08.2018 14:21
68 de Torfhaus Clear 21 1015 68 10000 8 320 02.08.2018 14:22
69 de Berlin Clouds 22 1016 68 10000 9 320 02.08.2018 14:21
70 vn Hanoi Clouds 27 1016 69 10000 15 0 02.08.2018 14:21
71 it Palermo Clouds 24 1021 69 10000 9 10 02.08.2018 14:22
72 ar Ushuaia Clouds 6 1023 70 10000 41 250 02.08.2018 14:22
73 cn Peking Clear 10 1036 70 10000 7 150 02.08.2018 14:23
74 cl Santiago Clouds 12 1015 71 10000 11 270 02.08.2018 14:23
75 de Hamburg Clouds 17 1015 72 10000 5 250 02.08.2018 14:21
76 us Los Angeles Rain 15 1012 72 14484 6 129 02.08.2018 14:22
77 it Mailand Mist 18 1023 72 10000 5 10 02.08.2018 14:21
78 us Fairbanks Clear -6 1019 73 16093 9 30 02.08.2018 14:23
79 es Barcelona Clouds 23 1015 73 10000 21 70 02.08.2018 14:22
80 gl Nuuk Clouds -3 1013 73 10000 17 60 02.08.2018 14:22
81 fr Nizza Clouds 23 1019 73 10000 28 90 02.08.2018 14:22
82 fr Bordeaux Clear 22 1006 73 10000 22 150 02.08.2018 14:21
83 in Jagatsukh Clouds 1 1018 75 0 7 223 02.08.2018 14:22
84 de Flensburg Clouds 15 1014 76 10000 11 320 02.08.2018 14:21
85 gb Manchester Haze 12 1008 76 10000 5 0 02.08.2018 14:21
86 de Helgoland Clouds 15 1015 76 10000 9 260 02.08.2018 14:22
87 au Sydney Clouds 17 1014 77 10000 8 150 02.08.2018 14:22
88 mx Mexiko Stadt Clear 13 1026 77 9656 5 70 02.08.2018 14:21
89 de Emden Clouds 15 1012 77 10000 15 70 02.08.2018 14:21
90 cn Shanghai Clouds 20 1028 77 10000 29 20 02.08.2018 14:21
91 br Rio de Janeiro Clear 26 1013 78 10000 11 360 02.08.2018 14:22
92 ck Avarua Clouds 22 1014 78 10000 5 110 02.08.2018 14:22
93 us Miami Clouds 24 1017 78 16093 8 360 02.08.2018 14:23
94 pe Cusco Clouds 8 1032 81 10000 4 324 02.08.2018 14:23
95 no Oslo Clouds 9 1010 81 10000 17 10 02.08.2018 14:23
96 ca Montreal Clouds 8 1012 81 14484 8 140 02.08.2018 14:22
97 ru Moskau Rain 11 1014 81 10000 11 180 02.08.2018 14:22
98 ru Werchojansk Clouds -14 1009 81 0 4 156 02.08.2018 14:22
99 gb Glasgow Clouds 10 1008 81 10000 8 110 02.08.2018 14:21
100 pt Lissabon Rain 16 1016 82 10000 13 260 02.08.2018 14:22
101 ma Casablanca Rain 20 1021 82 6000 15 300 02.08.2018 14:23
102 es Madrid Rain 17 1014 82 10000 22 240 02.08.2018 14:23
103 us Nome Clouds 0 1011 83 16093 21 70 02.08.2018 14:23
104 fj Suva Clouds 26 1012 83 10000 9 50 02.08.2018 14:21
105 pg Port Moresby Clouds 26 1012 83 10000 18 150 02.08.2018 14:21
106 bs Nassau Clouds 25 1016 83 10000 5 90 02.08.2018 14:22
107 no Hammerfest Clouds 3 1010 86 10000 4 0 02.08.2018 14:22
108 us New York Rain 14 1016 87 16093 3 296 02.08.2018 14:22
109 ru Amderma Clouds 3 1002 87 0 21 50 02.08.2018 14:23
110 bo La Paz Fog 6 1037 87 4000 9 80 02.08.2018 14:22
111 es Tarifa Rain 21 1018 88 6000 15 230 02.08.2018 14:21
112 ec San Cristobal Clouds 19 1013 88 0 20 174 02.08.2018 14:22
113 br Manaus Rain 23 1012 88 10000 13 10 02.08.2018 14:21
114 mv Male Clouds 31 1008 89 10000 5 290 02.08.2018 14:23
115 ru Surgut Rain 7 997 91 0 23 194 02.08.2018 14:23
116 gb London Rain 12 1007 93 10000 21 80 02.08.2018 14:22
117 ru Anadyr Clear 2 993 93 10000 14 100 02.08.2018 14:23
118 jp Tokio Rain 16 1018 93 10000 30 340 02.08.2018 14:22
119 ie Dublin Rain 13 1004 93 10000 18 140 02.08.2018 14:21
120 se Stockholm Rain 9 1004 93 10000 13 10 02.08.2018 14:23
121 sb Honiara Clouds 25 1012 94 0 26 143 02.08.2018 14:22
122 mx Veracruz Clear 23 1014 94 11265 5 283 02.08.2018 14:21
123 do Santo Domingo Clouds 25 1013 94 10000 8 20 02.08.2018 14:21
124 ru Jakutsk Clouds -7 1010 95 0 8 265 02.08.2018 14:22
125 fi Rovaniemi Fog 0 1007 97 10000 5 290 02.08.2018 14:21
126 at Innsbruck Clear 18 1012 100 0 5 158 02.08.2018 14:23
127 fi Helsinki Rain 6 1005 100 5000 22 30 02.08.2018 14:21
128 de Oberstdorf Clouds 19 1016 100 10000 8 310 02.08.2018 14:21